createdAt,value
2018-02-10T00:00:10.159Z,68.75
2018-02-10T00:02:37.141Z,65.07
2018-02-10T00:05:04.000Z,69.87
2018-02-10T00:07:30.877Z,64.25
2018-02-10T00:09:57.813Z,61.08
2018-02-10T00:12:25.501Z,62.38
2018-02-10T00:14:52.362Z,63.50
2018-02-10T00:17:19.304Z,69.07
2018-02-10T00:19:46.162Z,71.80
2018-02-10T00:22:25.128Z,67.62
2018-02-10T00:24:52.764Z,58.97
2018-02-10T00:27:19.686Z,67.00
2018-02-10T00:29:46.603Z,57.88
2018-02-10T00:32:13.470Z,63.42
2018-02-10T00:34:40.370Z,55.60
2018-02-10T00:37:08.027Z,60.38
2018-02-10T00:39:35.017Z,61.17
2018-02-10T00:42:01.935Z,60.60
2018-02-10T00:44:29.606Z,62.95
2018-02-10T00:46:56.490Z,61.85
2018-02-10T00:49:23.430Z,68.22
2018-02-10T00:51:50.291Z,63.60
2018-02-10T00:54:17.216Z,64.75
2018-02-10T00:56:44.140Z,59.50
2018-02-10T00:59:11.063Z,57.70
2018-02-10T01:01:37.934Z,60.38
2018-02-10T01:04:04.864Z,64.43
2018-02-10T01:06:31.746Z,59.83
2018-02-10T01:08:58.663Z,59.10
2018-02-10T01:11:26.251Z,61.40
2018-02-10T01:13:53.171Z,66.78
2018-02-10T01:16:20.125Z,58.22
2018-02-10T01:18:47.107Z,60.50
2018-02-10T01:21:14.030Z,55.35
2018-02-10T01:23:40.883Z,52.65
2018-02-10T01:26:07.834Z,53.90
2018-02-10T01:28:34.798Z,57.10
2018-02-10T01:31:01.673Z,62.65
2018-02-10T01:33:29.331Z,56.53
2018-02-10T01:35:56.255Z,62.55
2018-02-10T01:38:23.179Z,60.45
2018-02-10T01:40:50.042Z,64.62
2018-02-10T01:43:16.963Z,50.15
2018-02-10T01:45:43.818Z,56.45
2018-02-10T01:48:10.755Z,59.58
2018-02-10T01:50:37.615Z,54.75
2018-02-10T01:53:04.502Z,62.22
2018-02-10T01:55:32.167Z,56.47
2018-02-10T01:57:59.783Z,69.03
2018-02-10T02:00:26.697Z,62.70
2018-02-10T02:02:53.630Z,63.90
2018-02-10T02:05:20.562Z,66.45
2018-02-10T02:07:48.146Z,63.75
2018-02-10T02:10:15.061Z,64.20
2018-02-10T02:12:41.922Z,63.75
2018-02-10T02:15:09.521Z,60.47
2018-02-10T02:17:36.445Z,59.03
2018-02-10T02:20:03.332Z,59.75
2018-02-10T02:22:30.406Z,59.80
2018-02-10T02:24:58.009Z,70.72
2018-02-10T02:27:24.999Z,62.75
2018-02-10T02:29:51.923Z,60.15
2018-02-10T02:32:18.839Z,75.15
2018-02-10T02:34:45.770Z,64.00
2018-02-10T02:37:13.368Z,63.95
2018-02-10T02:39:40.286Z,68.68
2018-02-10T02:42:07.152Z,62.17
2018-02-10T02:44:34.082Z,71.53
2018-02-10T02:47:00.926Z,65.07
2018-02-10T02:49:27.859Z,63.10
2018-02-10T02:51:55.523Z,67.55
2018-02-10T02:54:23.132Z,64.40
2018-02-10T02:56:50.079Z,65.62
2018-02-10T02:59:17.010Z,72.87
2018-02-10T03:01:43.931Z,63.83
2018-02-10T03:04:10.883Z,59.67
2018-02-10T03:06:37.818Z,64.75
2018-02-10T03:09:05.510Z,59.20
2018-02-10T03:11:32.451Z,64.82
2018-02-10T03:13:59.302Z,59.38
2018-02-10T03:16:26.223Z,64.93
2018-02-10T03:18:53.130Z,61.05
2018-02-10T03:21:20.078Z,57.78
2018-02-10T03:23:46.994Z,60.53
2018-02-10T03:26:13.846Z,56.37
2018-02-10T03:28:40.842Z,58.08
2018-02-10T03:31:07.700Z,62.28
2018-02-10T03:33:34.630Z,58.65
2018-02-10T03:36:02.231Z,59.78
2018-02-10T03:38:29.171Z,59.50
2018-02-10T03:40:56.020Z,64.85
2018-02-10T03:43:23.045Z,55.63
2018-02-10T03:45:49.975Z,61.85
2018-02-10T03:48:17.603Z,67.20
2018-02-10T03:50:44.522Z,53.42
2018-02-10T03:53:11.422Z,63.58
2018-02-10T03:55:39.027Z,57.92
2018-02-10T03:58:05.983Z,57.85
2018-02-10T04:00:32.858Z,52.83
2018-02-10T04:02:59.796Z,55.55
2018-02-10T04:05:26.654Z,53.85
2018-02-10T04:07:53.516Z,53.50
2018-02-10T04:10:21.179Z,56.83
2018-02-10T04:12:48.794Z,56.72
2018-02-10T04:15:15.727Z,62.55
2018-02-10T04:17:42.590Z,61.15
2018-02-10T04:20:09.523Z,54.65
2018-02-10T04:22:36.466Z,57.33
2018-02-10T04:25:03.356Z,58.05
2018-02-10T04:27:31.047Z,63.28
2018-02-10T04:29:57.971Z,67.07
2018-02-10T04:32:25.634Z,63.83
2018-02-10T04:34:53.238Z,59.45
2018-02-10T04:37:20.179Z,62.60
2018-02-10T04:39:47.045Z,59.05
2018-02-10T04:42:13.902Z,58.30
2018-02-10T04:44:40.843Z,59.35
2018-02-10T04:47:07.746Z,60.17
2018-02-10T04:49:34.618Z,63.25
2018-02-10T04:52:01.539Z,65.70
2018-02-10T04:54:28.399Z,55.45
2018-02-10T04:56:55.266Z,61.58
2018-02-10T04:59:22.222Z,56.00
2018-02-10T05:01:49.078Z,59.65
2018-02-10T05:04:15.953Z,67.32
2018-02-10T05:06:42.888Z,66.53
2018-02-10T05:09:10.564Z,63.13
2018-02-10T05:11:37.410Z,57.17
2018-02-10T05:14:04.362Z,68.22
2018-02-10T05:16:31.236Z,63.13
2018-02-10T05:18:58.170Z,64.93
2018-02-10T05:21:25.101Z,68.28
2018-02-10T05:23:51.983Z,62.40
2018-02-10T05:26:19.034Z,60.78
2018-02-10T05:28:46.051Z,63.95
2018-02-10T05:31:12.920Z,63.92
2018-02-10T05:33:39.790Z,62.53
2018-02-10T05:36:06.706Z,62.17
2018-02-10T05:38:33.578Z,55.05
2018-02-10T05:41:00.515Z,62.60
2018-02-10T05:43:27.420Z,56.58
2018-02-10T05:45:54.381Z,58.40
2018-02-10T05:48:21.260Z,62.03
2018-02-10T05:50:48.187Z,62.30
2018-02-10T05:53:15.058Z,63.47
2018-02-10T05:55:41.995Z,69.70
2018-02-10T05:58:08.858Z,59.35
2018-02-10T06:00:36.469Z,63.47
2018-02-10T06:03:03.426Z,62.50
2018-02-10T06:05:30.287Z,62.65
2018-02-10T06:07:57.138Z,62.17
2018-02-10T06:10:24.077Z,61.25
2018-02-10T06:12:50.958Z,54.97
2018-02-10T06:15:17.812Z,62.47
2018-02-10T06:17:44.769Z,58.17
2018-02-10T06:20:11.642Z,60.70
2018-02-10T06:22:38.578Z,62.13
2018-02-10T06:25:05.549Z,59.47
2018-02-10T06:27:32.486Z,51.13
2018-02-10T06:29:59.364Z,54.60
2018-02-10T06:32:26.322Z,58.13
2018-02-10T06:34:53.191Z,57.97
2018-02-10T06:37:20.067Z,54.28
2018-02-10T06:39:47.000Z,59.30
2018-02-10T06:42:13.873Z,52.80
2018-02-10T06:44:40.835Z,64.45
2018-02-10T06:47:08.445Z,61.67
2018-02-10T06:49:35.316Z,60.42
2018-02-10T06:52:02.252Z,73.57
2018-02-10T06:54:29.121Z,59.83
2018-02-10T06:56:56.098Z,61.60
2018-02-10T06:59:22.965Z,60.08
2018-02-10T07:01:50.494Z,60.97
2018-02-10T07:04:18.155Z,57.33
2018-02-10T07:06:53.237Z,65.93
2018-02-10T07:09:21.099Z,62.00
2018-02-10T07:11:48.246Z,55.55
2018-02-10T07:14:15.218Z,56.83
2018-02-10T07:16:42.154Z,50.53
2018-02-10T07:19:20.586Z,58.28
2018-02-10T07:21:51.665Z,58.70
2018-02-10T07:24:20.211Z,58.70
2018-02-10T07:26:47.142Z,52.25
2018-02-10T07:29:15.458Z,53.35
2018-02-10T07:31:42.448Z,57.33
2018-02-10T07:34:17.279Z,57.13
2018-02-10T07:39:28.695Z,50.95
2018-02-10T07:41:55.655Z,51.60
2018-02-10T07:44:22.595Z,57.42
2018-02-10T07:46:55.292Z,52.72
2018-02-10T07:49:22.236Z,52.35
2018-02-10T07:51:50.801Z,56.50
2018-02-10T07:54:21.426Z,50.33
2018-02-10T07:56:51.812Z,44.17
2018-02-10T07:59:18.770Z,47.33
2018-02-10T08:01:46.734Z,45.85
2018-02-10T08:04:15.022Z,49.88
2018-02-10T08:06:44.463Z,48.13
2018-02-10T08:09:11.330Z,48.53
2018-02-10T08:11:41.685Z,46.37
2018-02-10T08:14:09.102Z,48.03
2018-02-10T08:16:39.130Z,46.63
2018-02-10T08:19:06.061Z,45.38
2018-02-10T08:21:33.000Z,45.40
2018-02-10T08:23:59.947Z,50.75
2018-02-10T08:26:26.886Z,45.25
2018-02-10T08:28:53.738Z,45.78
2018-02-10T08:31:20.601Z,48.28
2018-02-10T08:33:47.565Z,40.55
2018-02-10T08:36:14.438Z,39.30
2018-02-10T08:38:41.311Z,38.70
2018-02-10T08:41:08.245Z,42.83
2018-02-10T08:43:35.102Z,41.37
2018-02-10T08:46:01.999Z,42.67
2018-02-10T08:48:28.927Z,36.75
2018-02-10T08:50:55.850Z,43.22
2018-02-10T08:53:22.783Z,38.83
2018-02-10T08:55:49.665Z,42.92
2018-02-10T08:58:16.532Z,35.83
2018-02-10T09:00:43.473Z,39.92
2018-02-10T09:03:11.088Z,32.38
2018-02-10T09:05:42.436Z,35.00
2018-02-10T09:08:10.721Z,37.40
2018-02-10T09:10:38.184Z,35.38
2018-02-10T09:13:06.917Z,40.20
2018-02-10T09:15:36.891Z,42.33
2018-02-10T09:18:10.781Z,34.45
2018-02-10T09:20:39.533Z,35.38
2018-02-10T09:23:07.579Z,34.58
2018-02-10T09:25:35.777Z,35.90
2018-02-10T09:28:10.719Z,39.80
2018-02-10T09:30:48.665Z,30.65
2018-02-10T09:33:16.250Z,34.65
2018-02-10T09:35:43.183Z,34.10
2018-02-10T09:38:10.122Z,36.22
2018-02-10T09:40:37.010Z,38.13
2018-02-10T09:43:18.008Z,34.28
2018-02-10T09:45:51.560Z,32.95
2018-02-10T09:48:18.745Z,31.85
2018-02-10T09:50:46.410Z,32.80
2018-02-10T09:53:14.217Z,36.13
2018-02-10T09:55:42.503Z,30.00
2018-02-10T09:58:10.767Z,31.62
2018-02-10T10:00:41.878Z,34.47
2018-02-10T10:03:10.333Z,34.00
2018-02-10T10:05:37.952Z,29.08
2018-02-10T10:08:04.822Z,34.15
2018-02-10T10:10:32.763Z,35.33
2018-02-10T10:13:01.218Z,31.35
2018-02-10T10:15:28.217Z,32.28
2018-02-10T10:17:56.443Z,31.98
2018-02-10T10:20:24.924Z,33.05
2018-02-10T10:22:52.591Z,34.83
2018-02-10T10:25:19.542Z,34.50
2018-02-10T10:27:46.734Z,30.30
2018-02-10T10:30:13.663Z,33.28
2018-02-10T10:32:40.608Z,36.42
2018-02-10T10:35:14.778Z,34.35
2018-02-10T10:37:41.751Z,33.97
2018-02-10T10:40:11.084Z,31.42
2018-02-10T10:42:37.998Z,32.30
2018-02-10T10:45:04.949Z,31.30
2018-02-10T10:47:31.926Z,30.90
2018-02-10T10:49:58.821Z,28.50
2018-02-10T10:52:25.729Z,30.00
2018-02-10T10:54:52.702Z,29.25
2018-02-10T10:57:19.617Z,27.60
2018-02-10T10:59:46.619Z,33.83
2018-02-10T11:02:13.488Z,27.53
2018-02-10T11:04:42.142Z,29.47
2018-02-10T11:07:09.663Z,27.93
2018-02-10T11:09:38.290Z,27.90
2018-02-10T11:12:05.233Z,29.35
2018-02-10T11:14:34.555Z,31.25
2018-02-10T11:17:03.972Z,30.73
2018-02-10T11:19:30.843Z,26.95
2018-02-10T11:21:58.990Z,34.80
2018-02-10T11:24:25.940Z,29.55
2018-02-10T11:26:55.642Z,29.00
2018-02-10T11:29:22.580Z,29.42
2018-02-10T11:31:52.067Z,32.30
2018-02-10T11:34:20.343Z,31.52
2018-02-10T11:36:48.465Z,31.83
2018-02-10T11:39:15.362Z,30.95
2018-02-10T11:41:45.711Z,33.80
2018-02-10T11:44:15.991Z,32.22
2018-02-10T11:46:44.915Z,34.85
2018-02-10T11:49:11.932Z,30.33
2018-02-10T11:51:40.864Z,30.77
2018-02-10T11:54:08.547Z,27.62
2018-02-10T11:56:35.496Z,34.72
2018-02-10T11:59:06.577Z,30.00
2018-02-10T12:01:36.702Z,32.92
2018-02-10T12:04:05.481Z,31.70
2018-02-10T12:06:32.423Z,31.98
2018-02-10T12:08:59.883Z,31.30
2018-02-10T12:11:34.072Z,30.67
2018-02-10T12:14:01.040Z,29.15
2018-02-10T12:16:27.983Z,30.77
2018-02-10T12:18:54.914Z,34.08
2018-02-10T12:21:21.780Z,29.08
2018-02-10T12:23:51.179Z,30.77
2018-02-10T12:26:18.675Z,33.08
2018-02-10T12:28:56.029Z,25.45
2018-02-10T12:31:34.703Z,29.63
2018-02-10T12:34:05.536Z,30.95
2018-02-10T12:36:35.046Z,22.85
2018-02-10T12:39:09.082Z,23.45
2018-02-10T12:41:38.453Z,23.15
2018-02-10T12:44:06.961Z,23.58
2018-02-10T12:46:43.984Z,21.05
2018-02-10T12:49:17.315Z,26.52
2018-02-10T12:51:44.256Z,27.65
2018-02-10T12:54:11.863Z,28.55
2018-02-10T12:56:49.009Z,28.10
2018-02-10T12:59:24.578Z,27.70
2018-02-10T13:02:00.053Z,25.33
2018-02-10T13:04:27.652Z,29.75
2018-02-10T13:09:44.930Z,26.17
2018-02-10T13:12:17.316Z,26.08
2018-02-10T13:14:56.307Z,27.75
2018-02-10T13:17:32.276Z,26.62
2018-02-10T13:20:05.904Z,25.35
2018-02-10T13:22:41.628Z,24.20
2018-02-10T13:25:08.792Z,24.75
2018-02-10T13:27:50.567Z,26.00
2018-02-10T13:30:22.275Z,24.60
2018-02-10T13:32:57.391Z,24.60
2018-02-10T13:35:27.897Z,26.08
2018-02-10T13:37:54.981Z,22.77
2018-02-10T13:40:25.270Z,18.90
2018-02-10T13:42:53.030Z,19.30
2018-02-10T13:45:20.333Z,18.62
2018-02-10T13:47:47.421Z,20.20
2018-02-10T13:50:15.435Z,21.50
2018-02-10T13:52:42.364Z,24.73
2018-02-10T13:55:09.302Z,20.60
2018-02-10T13:57:40.449Z,23.83
2018-02-10T14:00:08.308Z,20.30
2018-02-10T14:02:35.160Z,20.77
2018-02-10T14:05:02.020Z,18.42
2018-02-10T14:07:29.854Z,19.55
2018-02-10T14:10:03.041Z,21.92
2018-02-10T14:12:36.616Z,19.45
2018-02-10T14:15:05.488Z,23.67
2018-02-10T14:17:35.426Z,19.20
2018-02-10T14:20:14.603Z,22.55
2018-02-10T14:22:42.015Z,21.73
2018-02-10T14:25:10.876Z,23.75
2018-02-10T14:27:39.027Z,18.08
2018-02-10T14:30:06.614Z,21.45
2018-02-10T14:32:33.491Z,17.58
2018-02-10T14:37:47.343Z,24.00
2018-02-10T14:40:20.610Z,21.40
2018-02-10T14:42:49.384Z,21.90
2018-02-10T14:45:21.502Z,19.73
2018-02-10T14:47:48.760Z,21.10
2018-02-10T14:50:21.656Z,24.25
2018-02-10T14:52:55.844Z,19.80
2018-02-10T14:55:32.954Z,21.70
2018-02-10T14:58:07.185Z,20.35
2018-02-10T15:00:43.483Z,23.00
2018-02-10T15:03:15.779Z,22.05
2018-02-10T15:05:47.463Z,23.23
2018-02-10T15:08:14.349Z,22.67
2018-02-10T15:10:44.357Z,20.95
2018-02-10T15:13:19.011Z,20.02
2018-02-10T15:15:54.428Z,21.98
2018-02-10T15:18:24.866Z,23.52
2018-02-10T15:20:51.920Z,18.83
2018-02-10T15:23:20.046Z,21.65
2018-02-10T15:25:52.620Z,19.85
2018-02-10T15:28:27.060Z,20.17
2018-02-10T15:31:09.935Z,22.37
2018-02-10T15:33:52.554Z,18.33
2018-02-10T15:36:30.054Z,21.30
2018-02-10T15:39:05.657Z,19.65
2018-02-10T15:41:40.789Z,19.25
2018-02-10T15:44:16.280Z,23.52
2018-02-10T15:46:51.822Z,19.20
2018-02-10T15:49:27.416Z,20.25
2018-02-10T15:52:03.113Z,20.23
2018-02-10T15:54:40.114Z,20.88
2018-02-10T15:57:15.192Z,20.45
2018-02-10T15:59:53.538Z,18.00
2018-02-10T16:02:33.256Z,19.95
2018-02-10T16:05:11.817Z,15.68
2018-02-10T16:07:57.601Z,16.92
2018-02-10T16:10:31.205Z,19.37
2018-02-10T16:18:28.819Z,19.58
2018-02-10T16:21:09.222Z,17.83
2018-02-10T16:23:48.939Z,20.12
2018-02-10T16:26:24.331Z,18.20
2018-02-10T16:28:51.879Z,22.90
2018-02-10T16:31:20.122Z,19.42
2018-02-10T16:33:49.753Z,20.77
2018-02-10T16:36:16.631Z,18.60
2018-02-10T16:38:43.643Z,20.70
2018-02-10T16:41:10.526Z,16.75
2018-02-10T16:43:37.396Z,18.62
2018-02-10T16:46:08.286Z,21.40
2018-02-10T16:48:38.563Z,19.27
2018-02-10T16:51:12.183Z,20.60
2018-02-10T16:53:48.906Z,18.27
2018-02-10T16:56:21.822Z,18.55
2018-02-10T16:58:50.401Z,18.87
2018-02-10T17:01:18.652Z,17.67
2018-02-10T17:03:45.712Z,20.75
2018-02-10T17:06:12.853Z,21.55
2018-02-10T17:08:47.676Z,18.33
2018-02-10T17:11:27.948Z,19.17
2018-02-10T17:13:59.664Z,23.12
2018-02-10T17:16:26.634Z,17.33
2018-02-10T17:18:53.499Z,21.40
2018-02-10T17:21:20.460Z,22.23
2018-02-10T17:23:47.708Z,25.48
2018-02-10T17:26:14.699Z,21.48
2018-02-10T17:28:41.576Z,25.80
2018-02-10T17:31:08.580Z,25.02
2018-02-10T17:33:35.508Z,20.15
2018-02-10T17:36:02.444Z,21.27
2018-02-10T17:38:29.386Z,23.70
2018-02-10T17:40:56.270Z,23.50
2018-02-10T17:43:23.200Z,25.08
2018-02-10T17:45:50.079Z,23.40
2018-02-10T17:48:17.764Z,30.40
2018-02-10T17:50:44.709Z,23.35
2018-02-10T17:53:11.602Z,21.52
2018-02-10T17:55:38.554Z,26.87
2018-02-10T17:58:05.476Z,19.67
2018-02-10T18:00:32.479Z,25.08
2018-02-10T18:03:00.107Z,25.33
2018-02-10T18:05:26.987Z,23.10
2018-02-10T18:07:54.658Z,24.52
2018-02-10T18:10:22.348Z,22.80
2018-02-10T18:12:49.223Z,25.25
2018-02-10T18:15:16.192Z,17.67
2018-02-10T18:17:43.532Z,25.30
2018-02-10T18:20:10.781Z,22.13
2018-02-10T18:22:37.738Z,21.50
2018-02-10T18:25:04.733Z,24.85
2018-02-10T18:27:31.675Z,21.52
2018-02-10T18:30:00.258Z,20.00
2018-02-10T18:32:27.143Z,22.60
2018-02-10T18:34:54.151Z,21.25
2018-02-10T18:37:21.102Z,22.08
2018-02-10T18:39:48.194Z,20.08
2018-02-10T18:42:15.072Z,25.10
2018-02-10T18:44:42.743Z,24.37
2018-02-10T18:47:10.415Z,23.83
2018-02-10T18:49:38.100Z,25.52
2018-02-10T18:52:05.056Z,20.23
2018-02-10T18:54:31.915Z,21.92
2018-02-10T18:56:58.785Z,24.73
2018-02-10T18:59:25.725Z,23.30
2018-02-10T19:01:52.701Z,22.67
2018-02-10T19:04:20.373Z,24.35
2018-02-10T19:06:47.244Z,22.27
2018-02-10T19:09:14.164Z,22.15
2018-02-10T19:11:41.108Z,22.70
2018-02-10T19:14:08.094Z,21.85
2018-02-10T19:16:34.987Z,25.48
2018-02-10T19:19:02.598Z,26.77
2018-02-10T19:21:29.528Z,24.23
2018-02-10T19:23:57.358Z,21.80
2018-02-10T19:26:31.806Z,28.02
2018-02-10T19:29:13.586Z,25.55
2018-02-10T19:31:50.667Z,27.67
2018-02-10T19:34:18.529Z,25.60
2018-02-10T19:36:48.362Z,21.17
2018-02-10T19:39:28.799Z,26.67
2018-02-10T19:42:02.830Z,28.55
2018-02-10T19:44:42.811Z,31.08
2018-02-10T19:47:17.672Z,29.20
2018-02-10T19:49:45.662Z,28.00
2018-02-10T19:52:12.762Z,29.73
2018-02-10T19:54:43.844Z,30.30
2018-02-10T19:57:10.811Z,32.20
2018-02-10T19:59:37.890Z,32.22
2018-02-10T20:02:05.585Z,25.83
2018-02-10T20:04:32.705Z,27.75
2018-02-10T20:06:59.842Z,32.92
2018-02-10T20:09:27.817Z,28.60
2018-02-10T20:11:54.834Z,27.52
2018-02-10T20:14:22.263Z,29.63
2018-02-10T20:16:50.784Z,32.80
2018-02-10T20:19:19.085Z,29.65
2018-02-10T20:21:46.275Z,28.23
2018-02-10T20:24:13.211Z,32.30
2018-02-10T20:26:40.116Z,26.98
2018-02-10T20:29:07.794Z,29.50
2018-02-10T20:31:34.724Z,29.85
2018-02-10T20:34:02.475Z,29.77
2018-02-10T20:36:29.499Z,28.17
2018-02-10T20:39:08.204Z,33.00
2018-02-10T20:41:47.559Z,31.73
2018-02-10T20:44:15.163Z,25.48
2018-02-10T20:46:53.777Z,33.15
2018-02-10T20:49:34.059Z,27.58
2018-02-10T20:52:13.661Z,29.25
2018-02-10T20:54:53.152Z,31.65
2018-02-10T20:57:32.804Z,35.63
2018-02-10T21:00:12.216Z,30.92
2018-02-10T21:02:51.822Z,29.27
2018-02-10T21:05:31.166Z,31.45
2018-02-10T21:08:11.272Z,31.58
2018-02-10T21:10:50.515Z,30.17
2018-02-10T21:13:30.102Z,30.17
2018-02-10T21:16:02.704Z,29.65
2018-02-10T21:18:41.768Z,34.28
2018-02-10T21:21:09.388Z,33.85
2018-02-10T21:23:36.325Z,29.33
2018-02-10T21:26:03.458Z,31.62
2018-02-10T21:28:40.842Z,30.33
2018-02-10T21:31:17.211Z,29.05
2018-02-10T21:33:55.897Z,30.23
2018-02-10T21:36:23.503Z,31.05
2018-02-10T21:38:50.440Z,30.95
2018-02-10T21:41:18.111Z,34.33
2018-02-10T21:43:46.406Z,33.47
2018-02-10T21:46:13.428Z,37.22
2018-02-10T21:48:40.302Z,30.52
2018-02-10T21:51:08.627Z,29.15
2018-02-10T21:53:36.597Z,30.20
2018-02-10T21:56:04.970Z,29.23
2018-02-10T21:58:33.086Z,32.70
2018-02-10T22:01:01.818Z,27.67
2018-02-10T22:03:29.439Z,28.42
2018-02-10T22:05:56.527Z,28.77
2018-02-10T22:08:23.399Z,31.08
2018-02-10T22:10:50.266Z,30.90
2018-02-10T22:13:19.715Z,29.83
2018-02-10T22:15:52.709Z,27.27
2018-02-10T22:18:20.024Z,29.95
2018-02-10T22:20:46.953Z,27.55
2018-02-10T22:23:13.821Z,28.27
2018-02-10T22:25:40.744Z,27.30
2018-02-10T22:28:08.525Z,28.33
2018-02-10T22:30:37.542Z,25.88
2018-02-10T22:33:05.910Z,27.30
2018-02-10T22:35:32.924Z,28.08
2018-02-10T22:37:59.950Z,21.35
2018-02-10T22:40:28.195Z,27.23
2018-02-10T22:42:56.171Z,20.35
2018-02-10T22:45:23.127Z,22.77
2018-02-10T22:47:50.075Z,27.40
2018-02-10T22:50:18.206Z,25.23
2018-02-10T22:52:45.908Z,24.15
2018-02-10T22:55:14.011Z,25.42
2018-02-10T22:57:42.141Z,23.12
2018-02-10T23:00:09.082Z,27.00
2018-02-10T23:02:37.065Z,22.35
2018-02-10T23:05:06.140Z,19.67
2018-02-10T23:07:34.638Z,19.95
2018-02-10T23:10:02.480Z,20.75
2018-02-10T23:12:29.358Z,20.40
2018-02-10T23:14:57.040Z,18.00
2018-02-10T23:17:23.904Z,22.90
2018-02-10T23:19:50.763Z,18.37
2018-02-10T23:22:19.047Z,15.45
2018-02-10T23:24:46.004Z,17.37
2018-02-10T23:27:14.403Z,15.80
2018-02-10T23:29:42.127Z,17.70
2018-02-10T23:32:10.183Z,14.73
2018-02-10T23:34:37.952Z,18.17
2018-02-10T23:37:04.835Z,16.10
2018-02-10T23:39:31.775Z,16.92
2018-02-10T23:41:59.855Z,17.23
2018-02-10T23:44:27.817Z,17.20
2018-02-10T23:46:54.711Z,14.90
2018-02-10T23:49:22.564Z,13.68
2018-02-10T23:51:49.633Z,15.43
2018-02-10T23:54:18.352Z,16.42
2018-02-10T23:56:46.590Z,16.30
2018-02-10T23:59:13.643Z,15.25
